Granby, Massachusetts
Current Conditions -  °F | °C
As of 6:58 AM on Wednesday 28 Jan 2015 (Local Time) from KCEF Reporting Station
Few Clouds Few Clouds  
Wind Chill:   Ceiling: Unl
Heat Index: 12°   Visibility: 10mi
Dew Point: -1°   Wind: 8mph
Humidity: 55%   Direction: 350°N
Pressure: 29.92"   Gusts: NA
Location:  42.26°N, 72.53°W
Report Text: KCEF 281158Z 35007KT 10SM FEW060 M11/M18 A2992 RMK AO2A SLP143 70039 T11091183 11101 21110 52033
Loading
Personal Weather Stations






























Interactive Weather Map New forecast layout! Learn more

10-Day Weather Forecast

Advertisements
Track Severe Weather on mobile